createdAt,value
2019-04-29T00:01:01.275Z,69.30
2019-04-29T00:06:30.747Z,69.40
2019-04-29T00:12:00.213Z,69.60
2019-04-29T00:17:31.320Z,69.60
2019-04-29T00:23:00.770Z,69.80
2019-04-29T00:28:30.198Z,69.90
2019-04-29T00:33:59.544Z,70.00
2019-04-29T00:39:30.650Z,70.10
2019-04-29T00:45:00.251Z,70.30
2019-04-29T00:50:29.785Z,70.70
2019-04-29T00:56:00.824Z,70.60
2019-04-29T01:01:30.401Z,70.90
2019-04-29T01:06:59.865Z,71.00
2019-04-29T01:12:29.170Z,71.30
2019-04-29T01:17:58.709Z,71.40
2019-04-29T01:23:28.196Z,71.40
2019-04-29T01:29:05.180Z,71.60
2019-04-29T01:34:36.171Z,71.50
2019-04-29T01:40:08.289Z,71.60
2019-04-29T01:45:38.262Z,71.50
2019-04-29T01:51:07.712Z,71.70
2019-04-29T01:56:37.169Z,71.80
2019-04-29T02:02:06.755Z,71.70
2019-04-29T02:07:36.163Z,71.70
2019-04-29T02:13:05.632Z,71.80
2019-04-29T02:18:35.024Z,71.60
2019-04-29T02:24:12.030Z,71.70
2019-04-29T02:29:41.451Z,71.70
2019-04-29T02:35:11.132Z,71.70
2019-04-29T02:40:47.741Z,71.70
2019-04-29T02:46:17.140Z,71.60
2019-04-29T02:51:48.163Z,71.70
2019-04-29T02:57:21.968Z,71.70
2019-04-29T03:02:58.943Z,71.60
2019-04-29T03:08:28.314Z,71.50
2019-04-29T03:13:57.645Z,71.50
2019-04-29T03:19:28.794Z,71.70
2019-04-29T03:24:58.115Z,71.70
2019-04-29T03:30:27.967Z,71.60
2019-04-29T03:35:57.733Z,71.90
2019-04-29T03:41:27.240Z,72.00
2019-04-29T03:46:56.697Z,72.20
2019-04-29T03:52:26.034Z,72.40
2019-04-29T03:57:56.153Z,72.50
2019-04-29T04:03:27.284Z,72.60
2019-04-29T04:09:06.229Z,72.70
2019-04-29T04:14:43.928Z,72.80
2019-04-29T04:20:14.241Z,73.30
2019-04-29T04:25:43.848Z,73.20
2019-04-29T04:31:13.151Z,73.30
2019-04-29T04:36:42.505Z,73.40
2019-04-29T04:42:18.103Z,73.40
2019-04-29T04:47:47.532Z,73.60
2019-04-29T04:53:17.129Z,73.70
2019-04-29T04:58:46.489Z,73.80
2019-04-29T05:04:15.794Z,74.00
2019-04-29T05:09:46.259Z,73.90
2019-04-29T05:15:16.697Z,73.90
2019-04-29T05:20:46.075Z,73.70
2019-04-29T05:26:15.540Z,73.70
2019-04-29T05:31:44.973Z,73.70
2019-04-29T05:37:21.819Z,73.70
2019-04-29T05:42:52.489Z,73.70
2019-04-29T05:48:22.222Z,73.50
2019-04-29T05:53:55.189Z,73.20
2019-04-29T05:59:24.361Z,73.10
2019-04-29T06:04:54.063Z,73.00
2019-04-29T06:10:24.737Z,72.70
2019-04-29T06:15:54.215Z,72.60
2019-04-29T06:21:23.543Z,72.70
2019-04-29T06:26:52.896Z,72.40
2019-04-29T06:32:24.973Z,72.10
2019-04-29T06:37:53.282Z,72.40
2019-04-29T06:43:24.704Z,72.10
2019-04-29T06:48:53.795Z,71.90
2019-04-29T06:54:23.115Z,71.80
2019-04-29T06:59:54.785Z,71.50
2019-04-29T07:05:23.466Z,71.60
2019-04-29T07:10:55.841Z,71.50
2019-04-29T07:16:26.831Z,71.80
2019-04-29T07:21:56.536Z,71.90
2019-04-29T07:27:25.929Z,72.00
2019-04-29T07:32:55.332Z,72.00
2019-04-29T07:38:24.667Z,72.20
2019-04-29T07:43:54.071Z,72.20
2019-04-29T07:49:23.477Z,72.30
2019-04-29T07:54:56.071Z,72.60
2019-04-29T08:00:33.254Z,72.70
2019-04-29T08:06:02.751Z,73.10
2019-04-29T08:11:32.299Z,72.90
2019-04-29T08:17:01.695Z,72.90
2019-04-29T08:22:31.016Z,72.90
2019-04-29T08:28:00.335Z,72.80
2019-04-29T08:33:29.718Z,73.30
2019-04-29T08:39:08.305Z,73.10
2019-04-29T08:44:31.801Z,73.20
2019-04-29T08:50:01.301Z,72.70
2019-04-29T08:55:33.968Z,73.20
2019-04-29T09:01:01.773Z,72.80
2019-04-29T09:06:32.604Z,72.80
2019-04-29T09:12:02.117Z,72.00
2019-04-29T09:17:31.445Z,72.20
2019-04-29T09:23:02.419Z,72.50
2019-04-29T09:28:31.808Z,71.50
2019-04-29T09:34:06.734Z,70.40
2019-04-29T09:39:43.106Z,69.60
2019-04-29T09:45:08.457Z,69.20
2019-04-29T09:50:39.064Z,68.90
2019-04-29T09:56:09.143Z,70.80
2019-04-29T10:01:40.150Z,70.80
2019-04-29T10:07:11.343Z,70.50
2019-04-29T10:12:40.733Z,70.40
2019-04-29T10:18:11.806Z,70.30
2019-04-29T10:23:41.263Z,70.00
2019-04-29T10:29:18.598Z,68.90
2019-04-29T10:34:46.193Z,67.60
2019-04-29T10:40:22.124Z,67.50
2019-04-29T10:46:09.330Z,67.10
2019-04-29T10:51:40.859Z,67.10
2019-04-29T10:57:14.695Z,66.30
2019-04-29T11:02:44.771Z,66.70
2019-04-29T11:08:15.535Z,68.20
2019-04-29T11:13:49.847Z,69.00
2019-04-29T11:19:16.132Z,69.80
2019-04-29T11:24:53.033Z,70.10
2019-04-29T11:30:24.056Z,70.90
2019-04-29T11:35:55.042Z,70.90
2019-04-29T11:41:27.600Z,70.80
2019-04-29T11:46:57.424Z,71.20
2019-04-29T11:52:28.097Z,71.00
2019-04-29T11:57:59.713Z,71.00
2019-04-29T12:03:33.827Z,70.60
2019-04-29T12:09:06.604Z,70.50
2019-04-29T12:14:49.101Z,67.90
2019-04-29T12:20:26.063Z,66.80
2019-04-29T12:25:58.729Z,66.50
2019-04-29T12:31:31.114Z,66.30
2019-04-29T12:37:00.731Z,65.50
2019-04-29T12:42:44.041Z,64.90
2019-04-29T12:48:24.538Z,64.50
2019-04-29T12:53:44.909Z,63.40
2019-04-29T12:59:14.352Z,64.20
2019-04-29T13:04:49.879Z,64.70
2019-04-29T13:10:21.241Z,66.80
2019-04-29T13:15:55.241Z,66.30
2019-04-29T13:21:24.726Z,66.80
2019-04-29T13:26:54.211Z,66.90
2019-04-29T13:32:25.414Z,68.20
2019-04-29T13:37:54.895Z,68.90
2019-04-29T13:43:25.901Z,68.90
2019-04-29T13:49:06.373Z,69.20
2019-04-29T13:54:28.173Z,68.90
2019-04-29T14:00:01.566Z,69.10
2019-04-29T14:05:36.715Z,69.10
2019-04-29T14:11:03.939Z,69.90
2019-04-29T14:16:33.703Z,69.90
2019-04-29T14:22:03.063Z,69.80
2019-04-29T14:27:32.390Z,70.10
2019-04-29T14:33:03.169Z,70.00
2019-04-29T14:38:35.966Z,70.70
2019-04-29T14:44:05.710Z,70.40
2019-04-29T14:49:40.895Z,70.10
2019-04-29T14:55:14.781Z,69.80
2019-04-29T15:00:45.812Z,70.10
2019-04-29T15:06:15.178Z,70.30
2019-04-29T15:11:47.462Z,70.60
2019-04-29T15:17:27.703Z,71.30
2019-04-29T15:22:57.121Z,71.10
2019-04-29T15:28:26.442Z,71.30
2019-04-29T15:33:55.775Z,71.20
2019-04-29T15:39:25.970Z,71.40
2019-04-29T15:44:56.119Z,71.30
2019-04-29T15:50:26.198Z,71.50
2019-04-29T15:56:06.712Z,71.20
2019-04-29T16:01:30.352Z,71.50
2019-04-29T16:07:00.992Z,71.80
2019-04-29T16:12:45.277Z,72.10
2019-04-29T16:18:14.738Z,72.50
2019-04-29T16:23:43.448Z,72.70
2019-04-29T16:29:15.422Z,72.80
2019-04-29T16:34:46.919Z,73.10
2019-04-29T16:40:15.579Z,73.60
2019-04-29T16:45:51.740Z,74.10
2019-04-29T16:51:17.797Z,74.50
2019-04-29T16:56:47.211Z,74.70
2019-04-29T17:02:19.615Z,75.10
2019-04-29T17:07:48.061Z,75.30
2019-04-29T17:13:23.395Z,75.40
2019-04-29T17:18:48.713Z,75.50
2019-04-29T17:24:18.423Z,75.50
2019-04-29T17:30:07.798Z,75.60
2019-04-29T17:35:38.311Z,76.00
2019-04-29T17:41:09.714Z,76.40
2019-04-29T17:46:43.544Z,76.50
2019-04-29T17:52:15.865Z,77.00
2019-04-29T17:58:03.015Z,76.90
2019-04-29T18:03:52.541Z,77.40
2019-04-29T18:09:36.615Z,77.50
2019-04-29T18:15:10.762Z,77.50
2019-04-29T18:20:42.685Z,77.80
2019-04-29T18:26:28.552Z,78.00
2019-04-29T18:32:00.554Z,78.20
2019-04-29T18:37:30.379Z,78.50
2019-04-29T18:43:00.645Z,78.60
2019-04-29T18:48:30.056Z,78.90
2019-04-29T18:54:01.428Z,79.00
2019-04-29T18:59:33.232Z,79.30
2019-04-29T19:05:20.591Z,79.40
2019-04-29T19:10:52.171Z,79.60
2019-04-29T19:16:22.042Z,79.90
2019-04-29T19:21:52.456Z,79.80
2019-04-29T19:27:21.999Z,80.10
2019-04-29T19:32:55.608Z,80.10
2019-04-29T19:38:22.486Z,80.30
2019-04-29T19:43:55.144Z,80.40
2019-04-29T19:49:22.877Z,80.50
2019-04-29T19:54:57.417Z,80.70
2019-04-29T20:00:29.445Z,80.50
2019-04-29T20:06:08.427Z,80.50
2019-04-29T20:11:33.548Z,80.50
2019-04-29T20:17:20.872Z,80.60
2019-04-29T20:22:51.345Z,80.70
2019-04-29T20:28:21.625Z,80.80
2019-04-29T20:33:51.345Z,81.00
2019-04-29T20:39:23.558Z,81.00
2019-04-29T20:44:52.022Z,81.20
2019-04-29T20:50:21.734Z,81.40
2019-04-29T20:55:51.436Z,81.60
2019-04-29T21:01:22.680Z,82.20
2019-04-29T21:07:01.804Z,82.40
2019-04-29T21:12:36.731Z,82.70
2019-04-29T21:18:02.095Z,82.70
2019-04-29T21:23:42.543Z,82.80
2019-04-29T21:29:18.106Z,82.90
2019-04-29T21:34:47.610Z,83.30
2019-04-29T21:40:20.672Z,83.40
2019-04-29T21:45:50.126Z,83.60
2019-04-29T21:51:19.520Z,83.70
2019-04-29T21:56:48.991Z,83.40
2019-04-29T22:02:19.889Z,83.80
2019-04-29T22:07:49.365Z,83.80
2019-04-29T22:13:18.812Z,84.00
2019-04-29T22:18:51.930Z,84.00
2019-04-29T22:24:21.840Z,83.80
2019-04-29T22:29:50.612Z,83.60
2019-04-29T22:35:20.122Z,83.80
2019-04-29T22:40:50.880Z,84.10
2019-04-29T22:46:20.467Z,84.30
2019-04-29T22:51:53.593Z,84.40
2019-04-29T22:57:22.905Z,84.70
2019-04-29T23:02:51.990Z,85.00
2019-04-29T23:08:21.334Z,85.50
2019-04-29T23:13:50.742Z,85.80
2019-04-29T23:19:20.195Z,85.90
2019-04-29T23:25:00.530Z,86.60
2019-04-29T23:30:29.975Z,86.40
2019-04-29T23:35:59.366Z,86.60
2019-04-29T23:41:33.117Z,87.00
2019-04-29T23:46:59.800Z,87.10
2019-04-29T23:52:29.207Z,87.20
2019-04-29T23:58:16.309Z,88.30
